createdAt,value
2019-02-17T00:00:54.282Z,17.93
2019-02-17T00:03:22.956Z,14.20
2019-02-17T00:05:51.600Z,15.73
2019-02-17T00:08:20.254Z,15.03
2019-02-17T00:10:48.939Z,12.70
2019-02-17T00:13:17.663Z,12.57
2019-02-17T00:15:46.307Z,10.03
2019-02-17T00:18:14.970Z,10.00
2019-02-17T00:20:43.624Z,11.00
2019-02-17T00:23:12.852Z,14.70
2019-02-17T00:25:41.603Z,13.17
2019-02-17T00:28:10.260Z,13.77
2019-02-17T00:30:39.163Z,22.70
2019-02-17T00:33:08.133Z,16.43
2019-02-17T00:35:37.063Z,15.97
2019-02-17T00:38:06.029Z,11.97
2019-02-17T00:40:34.667Z,13.47
2019-02-17T00:43:03.343Z,14.67
2019-02-17T00:45:32.364Z,15.37
2019-02-17T00:48:01.361Z,17.00
2019-02-17T00:50:30.527Z,13.37
2019-02-17T00:52:59.179Z,12.70
2019-02-17T00:55:27.828Z,11.63
2019-02-17T00:57:56.726Z,13.23
2019-02-17T01:00:25.392Z,16.47
2019-02-17T01:02:54.370Z,12.83
2019-02-17T01:05:23.391Z,18.17
2019-02-17T01:07:52.066Z,12.50
2019-02-17T01:10:21.076Z,19.53
2019-02-17T01:12:50.019Z,11.57
2019-02-17T01:15:18.711Z,13.77
2019-02-17T01:17:47.427Z,14.60
2019-02-17T01:20:16.098Z,12.57
2019-02-17T01:22:44.758Z,14.87
2019-02-17T01:25:13.431Z,16.17
2019-02-17T01:27:42.090Z,15.40
2019-02-17T01:30:13.897Z,11.40
2019-02-17T01:32:42.687Z,12.10
2019-02-17T01:35:11.440Z,14.93
2019-02-17T01:37:40.415Z,10.23
2019-02-17T01:40:09.356Z,12.63
2019-02-17T01:42:38.009Z,11.83
2019-02-17T01:45:07.187Z,14.77
2019-02-17T01:47:35.868Z,10.27
2019-02-17T01:50:05.208Z,22.20
2019-02-17T01:52:33.847Z,14.97
2019-02-17T01:55:02.491Z,16.07
2019-02-17T01:57:31.139Z,12.00
2019-02-17T02:00:00.279Z,13.83
2019-02-17T02:02:29.251Z,20.13
2019-02-17T02:04:57.990Z,11.87
2019-02-17T02:07:27.243Z,14.53
2019-02-17T02:09:55.998Z,10.07
2019-02-17T02:12:24.735Z,12.63
2019-02-17T02:14:53.404Z,13.60
2019-02-17T02:17:22.373Z,12.53
2019-02-17T02:19:51.043Z,14.13
2019-02-17T02:22:19.694Z,13.00
2019-02-17T02:24:48.626Z,11.00
2019-02-17T02:27:17.296Z,14.17
2019-02-17T02:29:46.222Z,13.57
2019-02-17T02:32:14.878Z,11.97
2019-02-17T02:34:43.862Z,19.23
2019-02-17T02:37:12.548Z,14.60
2019-02-17T02:39:41.187Z,13.10
2019-02-17T02:42:10.163Z,11.73
2019-02-17T02:44:39.098Z,12.80
2019-02-17T02:47:07.826Z,13.37
2019-02-17T02:49:36.730Z,9.03
2019-02-17T02:52:05.639Z,10.53
2019-02-17T02:54:34.924Z,9.63
2019-02-17T02:57:03.955Z,12.03
2019-02-17T02:59:32.901Z,13.33
2019-02-17T03:02:01.587Z,14.57
2019-02-17T03:04:30.252Z,10.90
2019-02-17T03:07:01.407Z,13.23
2019-02-17T03:09:30.052Z,12.03
2019-02-17T03:11:59.113Z,9.73
2019-02-17T03:14:27.998Z,15.37
2019-02-17T03:16:56.839Z,12.73
2019-02-17T03:19:25.508Z,11.43
2019-02-17T03:22:13.491Z,14.43
2019-02-17T03:24:42.175Z,12.73
2019-02-17T03:27:10.946Z,17.07
2019-02-17T03:29:39.755Z,13.07
2019-02-17T03:32:08.442Z,13.67
2019-02-17T03:34:37.160Z,15.20
2019-02-17T03:37:05.809Z,12.10
2019-02-17T03:39:34.477Z,11.20
2019-02-17T03:42:03.524Z,17.13
2019-02-17T03:44:32.187Z,12.00
2019-02-17T03:47:00.872Z,11.27
2019-02-17T03:49:29.847Z,11.00
2019-02-17T03:51:59.190Z,12.33
2019-02-17T03:54:27.834Z,11.33
2019-02-17T03:56:57.899Z,11.73
2019-02-17T03:59:26.572Z,10.63
2019-02-17T04:01:55.253Z,10.20
2019-02-17T04:04:24.271Z,11.87
2019-02-17T04:06:52.945Z,14.47
2019-02-17T04:09:21.596Z,11.40
2019-02-17T04:11:50.276Z,13.17
2019-02-17T04:14:18.952Z,11.77
2019-02-17T04:16:47.686Z,13.80
2019-02-17T04:19:16.343Z,11.10
2019-02-17T04:21:44.998Z,15.10
2019-02-17T04:24:13.676Z,12.07
2019-02-17T04:26:42.642Z,12.17
2019-02-17T04:29:11.296Z,10.77
2019-02-17T04:31:40.008Z,11.97
2019-02-17T04:34:09.014Z,10.67
2019-02-17T04:36:37.962Z,12.93
2019-02-17T04:39:07.410Z,11.63
2019-02-17T04:41:36.093Z,13.87
2019-02-17T04:44:05.157Z,11.67
2019-02-17T04:46:33.798Z,12.23
2019-02-17T04:49:02.474Z,10.63
2019-02-17T04:51:31.446Z,14.13
2019-02-17T04:54:00.164Z,8.90
2019-02-17T04:56:28.887Z,12.70
2019-02-17T04:58:57.762Z,10.60
2019-02-17T05:01:26.428Z,13.63
2019-02-17T05:03:55.098Z,11.77
2019-02-17T05:06:23.760Z,11.60
2019-02-17T05:08:52.414Z,11.73
2019-02-17T05:11:21.143Z,14.60
2019-02-17T05:13:49.787Z,9.33
2019-02-17T05:16:18.451Z,12.73
2019-02-17T05:18:47.449Z,11.90
2019-02-17T05:21:16.109Z,8.43
2019-02-17T05:23:45.097Z,10.10
2019-02-17T05:26:13.752Z,11.33
2019-02-17T05:28:50.369Z,10.87
2019-02-17T05:31:19.459Z,9.23
2019-02-17T05:33:48.101Z,8.97
2019-02-17T05:36:17.036Z,14.47
2019-02-17T05:38:45.727Z,10.30
2019-02-17T05:41:14.404Z,11.90
2019-02-17T05:43:44.012Z,9.83
2019-02-17T05:46:12.667Z,11.90
2019-02-17T05:48:41.420Z,6.80
2019-02-17T05:51:10.071Z,10.30
2019-02-17T05:53:38.711Z,12.30
2019-02-17T05:56:07.348Z,9.63
2019-02-17T05:58:37.020Z,8.77
2019-02-17T06:01:07.433Z,10.93
2019-02-17T06:03:36.084Z,10.77
2019-02-17T06:06:04.723Z,8.43
2019-02-17T06:08:33.397Z,11.93
2019-02-17T06:11:02.305Z,11.57
2019-02-17T06:13:30.990Z,11.07
2019-02-17T06:15:59.648Z,11.40
2019-02-17T06:18:28.310Z,8.43
2019-02-17T06:20:57.027Z,12.43
2019-02-17T06:23:25.701Z,10.07
2019-02-17T06:25:54.355Z,11.10
2019-02-17T06:28:23.014Z,12.77
2019-02-17T06:30:51.943Z,9.83
2019-02-17T06:33:20.589Z,9.07
2019-02-17T06:35:58.191Z,8.07
2019-02-17T06:38:26.853Z,8.70
2019-02-17T06:40:55.546Z,8.63
2019-02-17T06:43:24.212Z,7.67
2019-02-17T06:45:53.029Z,9.23
2019-02-17T06:48:21.715Z,9.93
2019-02-17T06:50:50.375Z,12.33
2019-02-17T06:53:19.332Z,8.87
2019-02-17T06:56:16.227Z,11.87
2019-02-17T06:58:44.918Z,11.23
2019-02-17T07:01:13.630Z,15.10
2019-02-17T07:03:42.663Z,10.63
2019-02-17T07:06:21.058Z,10.33
2019-02-17T07:08:50.030Z,17.60
2019-02-17T07:11:18.835Z,11.17
2019-02-17T07:13:47.566Z,9.13
2019-02-17T07:16:23.372Z,11.67
2019-02-17T07:18:52.036Z,10.00
2019-02-17T07:21:20.692Z,10.70
2019-02-17T07:23:49.461Z,10.33
2019-02-17T07:26:18.124Z,10.83
2019-02-17T07:28:46.904Z,10.57
2019-02-17T07:31:15.808Z,11.87
2019-02-17T07:33:44.447Z,14.27
2019-02-17T07:36:13.113Z,11.67
2019-02-17T07:38:41.797Z,13.80
2019-02-17T07:41:10.726Z,8.53
2019-02-17T07:43:39.458Z,9.97
2019-02-17T07:46:08.138Z,13.30
2019-02-17T07:48:36.787Z,10.70
2019-02-17T07:51:05.559Z,12.10
2019-02-17T07:53:34.194Z,12.00
2019-02-17T07:56:02.920Z,15.17
2019-02-17T07:58:31.917Z,13.30
2019-02-17T08:01:00.601Z,13.77
2019-02-17T08:03:35.664Z,13.67
2019-02-17T08:06:04.471Z,10.90
2019-02-17T08:08:33.345Z,12.50
2019-02-17T08:11:04.264Z,14.77
2019-02-17T08:13:32.884Z,12.77
2019-02-17T08:16:02.163Z,9.70
2019-02-17T08:18:34.871Z,10.97
2019-02-17T08:21:03.693Z,9.93
2019-02-17T08:23:32.431Z,12.27
2019-02-17T08:26:01.152Z,10.73
2019-02-17T08:28:30.051Z,11.23
2019-02-17T08:30:58.766Z,10.27
2019-02-17T08:33:27.490Z,11.30
2019-02-17T08:35:56.207Z,15.13
2019-02-17T08:38:24.887Z,10.53
2019-02-17T08:40:53.847Z,12.77
2019-02-17T08:43:22.546Z,12.70
2019-02-17T08:45:51.215Z,12.03
2019-02-17T08:48:20.145Z,11.00
2019-02-17T08:50:48.835Z,14.60
2019-02-17T08:53:17.509Z,11.07
2019-02-17T08:55:46.202Z,13.97
2019-02-17T08:58:15.216Z,10.67
2019-02-17T09:00:44.495Z,10.53
2019-02-17T09:03:13.177Z,10.07
2019-02-17T09:05:44.155Z,12.83
2019-02-17T09:08:12.560Z,14.03
2019-02-17T09:10:41.533Z,14.17
2019-02-17T09:13:10.187Z,11.30
2019-02-17T09:15:38.888Z,10.83
2019-02-17T09:18:07.567Z,12.47
2019-02-17T09:20:36.250Z,13.03
2019-02-17T09:23:04.941Z,10.23
2019-02-17T09:25:33.640Z,11.27
2019-02-17T09:28:02.621Z,12.20
2019-02-17T09:30:31.290Z,12.53
2019-02-17T09:33:00.018Z,11.57
2019-02-17T09:35:28.666Z,11.10
2019-02-17T09:37:57.343Z,11.93
2019-02-17T09:40:25.997Z,10.87
2019-02-17T09:42:55.040Z,12.63
2019-02-17T09:45:23.706Z,14.13
2019-02-17T09:47:52.446Z,17.47
2019-02-17T09:50:21.112Z,11.70
2019-02-17T09:52:49.768Z,17.87
2019-02-17T09:55:18.425Z,14.60
2019-02-17T09:57:47.065Z,16.00
2019-02-17T10:00:19.040Z,17.43
2019-02-17T10:02:48.243Z,16.67
2019-02-17T10:05:16.922Z,14.75
2019-02-17T10:07:45.581Z,16.90
2019-02-17T10:10:14.508Z,15.57
2019-02-17T10:12:43.150Z,15.07
2019-02-17T10:15:12.892Z,17.13
2019-02-17T10:17:41.982Z,20.57
2019-02-17T10:20:10.788Z,17.77
2019-02-17T10:22:39.415Z,18.60
2019-02-17T10:25:08.256Z,21.87
2019-02-17T10:27:37.283Z,16.37
2019-02-17T10:30:07.193Z,16.73
2019-02-17T10:32:39.006Z,17.03
2019-02-17T10:35:06.391Z,21.68
2019-02-17T10:37:35.396Z,21.48
2019-02-17T10:40:04.932Z,18.82
2019-02-17T10:42:45.933Z,20.40
2019-02-17T10:45:14.981Z,20.07
2019-02-17T10:47:43.810Z,21.50
2019-02-17T10:50:12.620Z,20.62
2019-02-17T10:52:41.476Z,21.12
2019-02-17T10:55:10.525Z,17.98
2019-02-17T10:57:39.498Z,21.27
2019-02-17T11:00:12.010Z,23.55
2019-02-17T11:02:47.024Z,23.30
2019-02-17T11:05:11.660Z,20.62
2019-02-17T11:07:40.297Z,20.13
2019-02-17T11:10:09.467Z,18.90
2019-02-17T11:12:38.636Z,17.83
2019-02-17T11:15:09.388Z,21.93
2019-02-17T11:17:38.169Z,19.05
2019-02-17T11:20:07.016Z,19.60
2019-02-17T11:22:35.674Z,23.67
2019-02-17T11:25:04.331Z,17.83
2019-02-17T11:27:33.063Z,21.40
2019-02-17T11:30:01.761Z,17.20
2019-02-17T11:32:32.330Z,19.20
2019-02-17T11:35:01.100Z,23.60
2019-02-17T11:37:29.749Z,19.70
2019-02-17T11:39:59.256Z,23.00
2019-02-17T11:42:27.929Z,20.25
2019-02-17T11:44:56.888Z,18.40
2019-02-17T11:47:25.874Z,23.27
2019-02-17T11:49:55.123Z,18.27
2019-02-17T11:52:24.049Z,18.52
2019-02-17T11:54:53.112Z,22.93
2019-02-17T11:57:21.783Z,21.97
2019-02-17T11:59:50.443Z,19.53
2019-02-17T12:02:24.862Z,22.43
2019-02-17T12:04:49.783Z,20.03
2019-02-17T12:07:18.450Z,22.30
2019-02-17T12:09:47.113Z,18.53
2019-02-17T12:12:15.844Z,21.50
2019-02-17T12:14:44.494Z,18.87
2019-02-17T12:17:13.440Z,19.47
2019-02-17T12:19:42.109Z,24.30
2019-02-17T12:22:21.895Z,20.57
2019-02-17T12:25:09.472Z,23.23
2019-02-17T12:27:47.023Z,22.77
2019-02-17T12:30:21.999Z,19.23
2019-02-17T12:32:50.878Z,25.03
2019-02-17T12:35:19.842Z,22.67
2019-02-17T12:37:48.823Z,21.57
2019-02-17T12:40:17.730Z,24.93
2019-02-17T12:42:46.702Z,19.50
2019-02-17T12:45:18.196Z,24.13
2019-02-17T12:47:46.326Z,24.50
2019-02-17T12:50:14.979Z,21.97
2019-02-17T12:52:47.147Z,21.93
2019-02-17T12:55:14.019Z,23.30
2019-02-17T12:57:42.684Z,30.57
2019-02-17T13:00:15.095Z,25.63
2019-02-17T13:02:44.063Z,29.37
2019-02-17T13:05:12.789Z,28.77
2019-02-17T13:07:42.949Z,24.57
2019-02-17T13:10:11.948Z,25.80
2019-02-17T13:12:40.607Z,28.70
2019-02-17T13:15:10.365Z,25.30
2019-02-17T13:17:39.000Z,24.70
2019-02-17T13:20:09.682Z,27.27
2019-02-17T13:22:39.388Z,26.20
2019-02-17T13:25:09.347Z,27.83
2019-02-17T13:27:37.982Z,29.27
2019-02-17T13:30:11.629Z,31.10
2019-02-17T13:32:40.544Z,24.40
2019-02-17T13:35:09.826Z,31.10
2019-02-17T13:37:38.534Z,24.43
2019-02-17T13:40:08.474Z,26.17
2019-02-17T13:42:37.501Z,25.07
2019-02-17T13:45:06.595Z,24.80
2019-02-17T13:47:35.250Z,27.10
2019-02-17T13:50:04.582Z,23.90
2019-02-17T13:52:33.228Z,24.07
2019-02-17T13:55:01.957Z,26.20
2019-02-17T13:57:30.591Z,25.50
2019-02-17T13:59:59.241Z,23.20
2019-02-17T14:02:27.905Z,26.23
2019-02-17T14:04:56.553Z,22.93
2019-02-17T14:07:25.279Z,27.37
2019-02-17T14:09:53.954Z,24.80
2019-02-17T14:12:22.587Z,22.10
2019-02-17T14:14:51.260Z,24.77
2019-02-17T14:17:19.905Z,17.60
2019-02-17T14:19:48.946Z,25.77
2019-02-17T14:22:17.602Z,22.47
2019-02-17T14:24:46.546Z,22.23
2019-02-17T14:27:15.249Z,23.30
2019-02-17T14:29:44.034Z,19.23
2019-02-17T14:32:13.083Z,19.60
2019-02-17T14:34:41.775Z,24.80
2019-02-17T14:37:10.759Z,22.60
2019-02-17T14:39:39.406Z,26.00
2019-02-17T14:42:08.075Z,22.93
2019-02-17T14:44:36.748Z,20.63
2019-02-17T14:47:05.418Z,20.07
2019-02-17T14:49:34.723Z,21.30
2019-02-17T14:52:03.404Z,20.13
2019-02-17T14:54:32.380Z,21.97
2019-02-17T14:57:01.308Z,22.43
2019-02-17T14:59:30.693Z,21.73
2019-02-17T15:01:59.372Z,27.53
2019-02-17T15:04:28.038Z,19.57
2019-02-17T15:06:56.673Z,19.47
2019-02-17T15:09:25.333Z,30.60
2019-02-17T15:11:54.118Z,21.03
2019-02-17T15:14:22.855Z,18.30
2019-02-17T15:16:51.847Z,21.00
2019-02-17T15:19:20.507Z,16.63
2019-02-17T15:21:49.246Z,21.30
2019-02-17T15:24:17.956Z,18.67
2019-02-17T15:26:46.727Z,22.17
2019-02-17T15:29:15.385Z,20.87
2019-02-17T15:31:44.042Z,21.57
2019-02-17T15:34:18.732Z,18.50
2019-02-17T15:36:43.067Z,22.17
2019-02-17T15:39:11.727Z,26.23
2019-02-17T15:41:40.389Z,20.13
2019-02-17T15:44:09.045Z,16.90
2019-02-17T15:46:37.714Z,24.07
2019-02-17T15:49:06.750Z,20.03
2019-02-17T15:51:35.939Z,20.87
2019-02-17T15:54:04.580Z,20.07
2019-02-17T15:56:33.248Z,20.70
2019-02-17T15:59:02.070Z,25.77
2019-02-17T16:01:31.012Z,20.63
2019-02-17T16:04:00.012Z,17.97
2019-02-17T16:06:28.669Z,20.60
2019-02-17T16:08:57.381Z,18.60
2019-02-17T16:11:26.053Z,17.97
2019-02-17T16:13:54.709Z,20.07
2019-02-17T16:16:23.970Z,15.93
2019-02-17T16:18:52.624Z,17.60
2019-02-17T16:21:23.476Z,21.13
2019-02-17T16:23:51.679Z,20.03
2019-02-17T16:26:20.595Z,18.50
2019-02-17T16:28:49.273Z,21.20
2019-02-17T16:31:17.943Z,19.00
2019-02-17T16:33:46.867Z,18.43
2019-02-17T16:36:15.557Z,20.40
2019-02-17T16:38:44.223Z,13.97
2019-02-17T16:41:12.895Z,20.40
2019-02-17T16:43:41.645Z,21.43
2019-02-17T16:46:10.663Z,19.20
2019-02-17T16:48:39.314Z,19.53
2019-02-17T16:51:08.328Z,21.37
2019-02-17T16:53:37.260Z,17.23
2019-02-17T16:56:06.056Z,23.73
2019-02-17T16:58:35.023Z,26.23
2019-02-17T17:01:05.088Z,20.50
2019-02-17T17:03:33.885Z,25.13
2019-02-17T17:06:02.694Z,21.67
2019-02-17T17:08:31.455Z,23.70
2019-02-17T17:11:00.415Z,25.00
2019-02-17T17:13:29.071Z,20.40
2019-02-17T17:15:57.740Z,22.10
2019-02-17T17:18:26.379Z,22.10
2019-02-17T17:20:55.119Z,19.20
2019-02-17T17:23:23.810Z,23.33
2019-02-17T17:25:52.500Z,19.50
2019-02-17T17:28:21.689Z,26.77
2019-02-17T17:30:50.355Z,20.80
2019-02-17T17:33:19.066Z,20.60
2019-02-17T17:35:47.966Z,16.80
2019-02-17T17:38:16.663Z,19.97
2019-02-17T17:40:45.424Z,17.93
2019-02-17T17:43:14.373Z,18.33
2019-02-17T17:45:43.029Z,21.93
2019-02-17T17:48:11.792Z,21.20
2019-02-17T17:50:41.499Z,18.37
2019-02-17T17:53:11.206Z,17.17
2019-02-17T17:55:40.126Z,20.03
2019-02-17T17:58:09.033Z,18.37
2019-02-17T18:00:38.239Z,22.70
2019-02-17T18:03:07.000Z,21.63
2019-02-17T18:05:35.661Z,21.67
2019-02-17T18:08:04.314Z,24.60
2019-02-17T18:10:32.971Z,19.73
2019-02-17T18:13:01.643Z,22.77
2019-02-17T18:15:30.584Z,18.87
2019-02-17T18:17:59.247Z,22.03
2019-02-17T18:20:27.900Z,23.27
2019-02-17T18:22:56.540Z,21.83
2019-02-17T18:25:25.204Z,23.60
2019-02-17T18:27:53.971Z,21.23
2019-02-17T18:30:22.840Z,18.10
2019-02-17T18:32:51.527Z,22.30
2019-02-17T18:35:20.828Z,23.40
2019-02-17T18:37:49.875Z,24.43
2019-02-17T18:40:18.534Z,21.00
2019-02-17T18:42:47.490Z,20.80
2019-02-17T18:45:16.231Z,24.43
2019-02-17T18:47:44.900Z,17.90
2019-02-17T18:50:13.721Z,22.33
2019-02-17T18:52:42.435Z,20.00
2019-02-17T18:55:11.604Z,21.37
2019-02-17T18:57:49.320Z,19.03
2019-02-17T19:00:12.504Z,21.73
2019-02-17T19:02:41.610Z,18.47
2019-02-17T19:05:10.400Z,18.27
2019-02-17T19:07:39.086Z,20.33
2019-02-17T19:10:09.382Z,32.70
2019-02-17T19:12:38.101Z,30.33
2019-02-17T19:15:08.025Z,28.60
2019-02-17T19:17:36.711Z,21.00
2019-02-17T19:20:06.739Z,23.63
2019-02-17T19:22:35.410Z,20.97
2019-02-17T19:25:04.215Z,24.03
2019-02-17T19:27:33.088Z,26.80
2019-02-17T19:30:01.785Z,19.40
2019-02-17T19:32:30.826Z,20.27
2019-02-17T19:34:59.519Z,26.03
2019-02-17T19:37:28.168Z,21.87
2019-02-17T19:39:56.849Z,20.80
2019-02-17T19:42:26.108Z,22.63
2019-02-17T19:44:55.109Z,28.67
2019-02-17T19:47:23.790Z,27.97
2019-02-17T19:49:52.464Z,22.37
2019-02-17T19:52:21.189Z,20.40
2019-02-17T19:54:49.919Z,26.67
2019-02-17T19:57:18.608Z,23.40
2019-02-17T19:59:47.507Z,21.90
2019-02-17T20:02:17.938Z,21.63
2019-02-17T20:04:50.719Z,25.77
2019-02-17T20:07:19.390Z,33.87
2019-02-17T20:09:48.325Z,21.03
2019-02-17T20:12:17.234Z,28.57
2019-02-17T20:14:46.299Z,28.70
2019-02-17T20:17:14.956Z,23.13
2019-02-17T20:19:43.890Z,25.20
2019-02-17T20:22:12.807Z,24.20
2019-02-17T20:24:41.538Z,22.60
2019-02-17T20:27:10.184Z,27.40
2019-02-17T20:29:38.895Z,25.03
2019-02-17T20:32:07.563Z,24.70
2019-02-17T20:34:36.481Z,21.00
2019-02-17T20:37:05.146Z,28.10
2019-02-17T20:39:33.898Z,28.07
2019-02-17T20:42:02.523Z,20.63
2019-02-17T20:44:31.701Z,19.90
2019-02-17T20:47:00.627Z,20.03
2019-02-17T20:49:29.301Z,24.33
2019-02-17T20:51:59.980Z,23.07
2019-02-17T20:54:28.666Z,24.60
2019-02-17T20:56:57.316Z,21.33
2019-02-17T20:59:26.289Z,22.83
2019-02-17T21:01:55.237Z,23.00
2019-02-17T21:04:24.159Z,24.07
2019-02-17T21:06:52.970Z,24.23
2019-02-17T21:09:22.170Z,23.33
2019-02-17T21:11:50.839Z,24.37
2019-02-17T21:14:19.463Z,25.13
2019-02-17T21:16:48.720Z,19.93
2019-02-17T21:19:17.389Z,21.33
2019-02-17T21:21:46.366Z,17.60
2019-02-17T21:24:15.174Z,20.07
2019-02-17T21:26:43.818Z,20.77
2019-02-17T21:29:12.504Z,24.50
2019-02-17T21:31:41.194Z,27.03
2019-02-17T21:34:09.877Z,22.77
2019-02-17T21:36:38.522Z,25.77
2019-02-17T21:39:07.265Z,20.37
2019-02-17T21:41:35.914Z,26.57
2019-02-17T21:44:04.991Z,21.80
2019-02-17T21:46:34.018Z,21.10
2019-02-17T21:49:03.091Z,18.50
2019-02-17T21:51:31.787Z,24.90
2019-02-17T21:56:53.940Z,23.03
2019-02-17T21:59:22.619Z,23.77
2019-02-17T22:01:51.533Z,31.47
2019-02-17T22:04:20.496Z,24.23
2019-02-17T22:06:49.163Z,25.97
2019-02-17T22:09:18.156Z,27.90
2019-02-17T22:11:46.845Z,23.00
2019-02-17T22:14:15.538Z,20.80
2019-02-17T22:16:44.428Z,23.63
2019-02-17T22:19:13.106Z,25.77
2019-02-17T22:21:41.811Z,22.40
2019-02-17T22:24:10.596Z,24.93
2019-02-17T22:26:39.303Z,26.60
2019-02-17T22:29:07.987Z,23.13
2019-02-17T22:31:36.642Z,22.17
2019-02-17T22:34:05.652Z,23.80
2019-02-17T22:36:43.459Z,20.10
2019-02-17T22:39:06.130Z,22.93
2019-02-17T22:41:34.778Z,21.03
2019-02-17T22:44:03.779Z,29.40
2019-02-17T22:46:32.781Z,23.17
2019-02-17T22:49:01.435Z,23.80
2019-02-17T22:51:30.116Z,21.37
2019-02-17T22:53:59.136Z,24.93
2019-02-17T22:56:27.787Z,20.37
2019-02-17T22:58:56.453Z,24.27
2019-02-17T23:01:29.816Z,24.33
2019-02-17T23:03:58.755Z,22.43
2019-02-17T23:06:28.109Z,29.50
2019-02-17T23:08:56.763Z,22.00
2019-02-17T23:11:25.406Z,22.80
2019-02-17T23:13:54.090Z,20.33
2019-02-17T23:16:23.033Z,18.20
2019-02-17T23:18:51.684Z,24.33
2019-02-17T23:21:20.599Z,20.30
2019-02-17T23:23:49.253Z,26.00
2019-02-17T23:26:18.277Z,20.00
2019-02-17T23:28:47.160Z,23.50
2019-02-17T23:31:16.099Z,23.83
2019-02-17T23:33:44.744Z,25.10
2019-02-17T23:36:13.685Z,21.23
2019-02-17T23:38:42.348Z,23.90
2019-02-17T23:41:11.067Z,18.90
2019-02-17T23:43:39.973Z,21.77
2019-02-17T23:46:09.041Z,22.13
2019-02-17T23:48:37.713Z,22.20
2019-02-17T23:51:06.380Z,19.20
2019-02-17T23:53:35.020Z,20.87
2019-02-17T23:56:03.733Z,18.77
2019-02-17T23:58:32.372Z,25.17
